Lake Arthur, Louisiana
Current Conditions -  °F | °C
As of 11:35 PM on Friday 31 Oct 2014 (Local Time) from K3R7 Reporting Station
Clear Clear  
Wind Chill: 53°   Ceiling: Unl
Heat Index: 53°   Visibility: 10mi
Dew Point: 48°   Wind: 8mph
Humidity: 82%   Direction: 10°N
Pressure: 30.25"   Gusts: NA
Location:  30.08°N, 92.67°W
Report Text: K3R7 010435Z AUTO 01007KT 10SM CLR 12/09 A3025 RMK AO2 T01190089
Loading
Personal Weather Stations






























Interactive Weather Map New forecast layout! Learn more

10-Day Weather Forecast

Advertisements
Track Severe Weather on mobile